Time;durP1;ratioP1;P1;durP2;ratioP2;P2;SDS_P1;SDS_P2;PMS_P1;PMS_P2;Temp;Humidity;BMP_temperature;BMP_pressure;BME280_temperature;BME280_humidity;BME280_pressure;Samples;Min_cycle;Max_cycle;Signal;HPM_P1;HPM_P2
2023/09/22 05:13:20;;;;;;;;;;;;;;;5.69;100.00;98327.88;5178152;23;19929;-79
2023/09/22 05:15:45;;;;;;;;;;;;;;;5.73;100.00;98329.44;5014572;28;19996;-82
2023/09/22 05:18:13;;;;;;;;;;;;;;;5.66;100.00;98330.63;5032246;28;19917;-88
2023/09/22 05:20:40;;;;;;;;;;;;;;;5.66;100.00;98331.47;5013722;28;19921;-82
2023/09/22 05:23:05;;;;;;;;;;;;;;;5.70;100.00;98324.31;5014421;28;20433;-84
2023/09/22 05:25:31;;;;;;;;;;;;;;;5.76;100.00;98326.63;5014237;28;19913;-80
2023/09/22 05:27:56;;;;;;;;;;;;;;;5.79;100.00;98351.03;5030720;28;19924;-80
2023/09/22 05:30:23;;;;;;;;;;;;;;;5.82;100.00;98347.38;5014283;28;19921;-80
2023/09/22 05:32:48;;;;;;;;;;;;;;;5.79;100.00;98342.28;5014201;28;19917;-80
2023/09/22 05:35:13;;;;;;;;;;;;;;;5.83;100.00;98349.94;5032154;28;20257;-87
2023/09/22 05:37:38;;;;;;;;;;;;;;;5.78;100.00;98351.09;5014089;28;19917;-83
2023/09/22 05:40:10;;;;;;;;;;;;;;;5.79;100.00;98358.03;5031931;28;20265;-85
2023/09/22 05:42:36;;;;;;;;;;;;;;;5.79;100.00;98352.78;5030389;28;19917;-84
2023/09/22 05:45:02;;;;;;;;;;;;;;;5.85;100.00;98351.66;5014102;28;19924;-85
2023/09/22 05:47:29;;;;;;;;;;;;;;;5.91;100.00;98348.75;5031728;28;19928;-85
2023/09/22 05:49:54;;;;;;;;;;;;;;;5.90;100.00;98350.50;5031108;28;19944;-85
2023/09/22 05:52:20;;;;;;;;;;;;;;;5.92;100.00;98360.94;5031853;28;20368;-86
2023/09/22 05:54:46;;;;;;;;;;;;;;;5.87;100.00;98373.47;5031792;28;19921;-86
2023/09/22 05:57:11;;;;;;;;;;;;;;;5.88;100.00;98377.81;5030323;28;20395;-85
2023/09/22 05:59:37;;;;;;;;;;;;;;;5.83;100.00;98385.91;5031594;28;19917;-85
2023/09/22 06:02:02;;;;;;;;;;;;;;;5.80;100.00;98375.53;5031690;28;19920;-86
2023/09/22 06:04:29;;;;;;;;;;;;;;;5.85;100.00;98385.84;5031650;28;20475;-86
2023/09/22 06:06:56;;;;;;;;;;;;;;;5.82;100.00;98382.44;5030955;28;19944;-86
2023/09/22 06:09:21;;;;;;;;;;;;;;;5.81;100.00;98387.75;5031545;28;19970;-85
2023/09/22 06:11:46;;;;;;;;;;;;;;;5.79;100.00;98390.47;5030318;28;20283;-89
2023/09/22 06:14:12;;;;;;;;;;;;;;;5.72;100.00;98394.28;5031257;28;19921;-87
2023/09/22 06:16:37;;;;;;;;;;;;;;;5.76;100.00;98402.88;5032018;28;19921;-87
2023/09/22 06:19:03;;;;;;;;;;;;;;;5.70;100.00;98409.28;5035247;28;19971;-86
2023/09/22 06:21:30;;;;;;;;;;;;;;;5.78;100.00;98403.66;5035392;28;19917;-93
2023/09/22 06:23:56;;;;;;;;;;;;;;;5.79;100.00;98400.97;5035329;28;20004;-87
2023/09/22 06:26:21;;;;;;;;;;;;;;;5.75;100.00;98416.94;5033787;28;19917;-87
2023/09/22 06:28:47;;;;;;;;;;;;;;;5.81;100.00;98420.16;5035193;28;21954;-85
2023/09/22 06:31:13;;;;;;;;;;;;;;;5.76;100.00;98414.25;5017585;28;19960;-87
2023/09/22 06:33:39;;;;;;;;;;;;;;;5.76;100.00;98427.41;5034833;28;20265;-82
2023/09/22 06:36:04;;;;;;;;;;;;;;;5.79;100.00;98429.00;5034797;28;20391;-86
2023/09/22 06:38:33;;;;;;;;;;;;;;;5.79;100.00;98437.78;5035068;28;19917;-81
2023/09/22 06:41:02;;;;;;;;;;;;;;;5.76;100.00;98442.28;5034578;28;20039;-86
2023/09/22 06:43:29;;;;;;;;;;;;;;;5.81;100.00;98435.91;5033637;28;19917;-85
2023/09/22 06:45:58;;;;;;;;;;;;;;;5.77;100.00;98429.09;5017179;28;19917;-86
2023/09/22 06:48:26;;;;;;;;;;;;;;;5.75;100.00;98430.94;5034679;28;20386;-85
2023/09/22 06:50:51;;;;;;;;;;;;;;;5.71;100.00;98439.03;5034592;28;19971;-81
2023/09/22 06:53:18;;;;;;;;;;;;;;;5.71;100.00;98445.16;5015914;28;19921;-81
2023/09/22 07:47:37;;;;;;;;;;;;;;;5.46;100.00;98448.00;5082934;23;20002;-82
2023/09/22 07:50:06;;;;;;;;;;;;;;;5.51;100.00;98443.38;5014199;28;20368;-84
2023/09/22 07:52:32;;;;;;;;;;;;;;;5.52;100.00;98444.22;5012963;28;19917;-83
2023/09/22 07:54:59;;;;;;;;;;;;;;;5.56;100.00;98444.03;5012890;28;20355;-85
2023/09/22 07:57:25;;;;;;;;;;;;;;;5.59;100.00;98436.00;5013737;28;19932;-85
2023/09/22 07:59:50;;;;;;;;;;;;;;;5.64;100.00;98444.53;5013629;28;19968;-86
2023/09/22 08:02:17;;;;;;;;;;;;;;;5.60;100.00;98434.22;5012462;28;19951;-86
2023/09/22 08:04:42;;;;;;;;;;;;;;;5.67;100.00;98447.97;5012773;28;19972;-86
2023/09/22 08:07:07;;;;;;;;;;;;;;;5.70;100.00;98453.09;5013551;28;19922;-86
2023/09/22 08:09:33;;;;;;;;;;;;;;;5.76;100.00;98447.53;5012928;28;19917;-84
2023/09/22 08:11:58;;;;;;;;;;;;;;;5.67;100.00;98451.44;5013528;28;20308;-82
2023/09/22 08:14:25;;;;;;;;;;;;;;;5.70;100.00;98451.31;5014834;28;19924;-92
2023/09/22 08:16:50;;;;;;;;;;;;;;;5.67;100.00;98454.09;5012422;28;19924;-88
2023/09/22 08:19:15;;;;;;;;;;;;;;;5.72;100.00;98464.41;5013916;28;20273;-83
2023/09/22 08:21:41;;;;;;;;;;;;;;;5.67;100.00;98466.38;5013238;28;19980;-82
2023/09/22 08:24:07;;;;;;;;;;;;;;;5.67;100.00;98469.00;5013213;28;20392;-85
2023/09/22 08:26:32;;;;;;;;;;;;;;;5.70;100.00;98464.47;4995621;28;19918;-83
2023/09/22 08:28:59;;;;;;;;;;;;;;;5.70;100.00;98471.50;5013102;28;20364;-84
2023/09/22 08:31:26;;;;;;;;;;;;;;;5.71;100.00;98465.31;5011408;28;20301;-81
2023/09/22 08:33:51;;;;;;;;;;;;;;;5.68;100.00;98468.06;5012933;28;20395;-85
2023/09/22 08:36:17;;;;;;;;;;;;;;;5.75;100.00;98482.66;5012934;28;19918;-81
2023/09/22 08:38:42;;;;;;;;;;;;;;;5.78;100.00;98478.13;5013280;28;19918;-82
2023/09/22 08:41:07;;;;;;;;;;;;;;;5.78;100.00;98482.53;5012677;28;19928;-84
2023/09/22 08:43:33;;;;;;;;;;;;;;;5.81;100.00;98485.03;5012752;28;19965;-81
2023/09/22 08:46:01;;;;;;;;;;;;;;;5.72;100.00;98481.00;5011529;28;20376;-82
2023/09/22 08:48:27;;;;;;;;;;;;;;;5.66;100.00;98478.66;5012054;28;19928;-84
2023/09/22 08:50:53;;;;;;;;;;;;;;;5.74;100.00;98479.16;5012658;28;19921;-81
2023/09/22 08:53:19;;;;;;;;;;;;;;;5.77;100.00;98488.69;5012817;28;19992;-82
2023/09/22 08:55:44;;;;;;;;;;;;;;;5.75;100.00;98487.91;5012558;28;19917;-81
2023/09/22 08:58:09;;;;;;;;;;;;;;;5.77;100.00;98486.91;5012641;28;20424;-81
2023/09/22 09:00:35;;;;;;;;;;;;;;;5.79;100.00;98481.59;5011395;28;19925;-81
2023/09/22 09:03:10;;;;;;;;;;;;;;;5.79;100.00;98484.22;5012576;28;20012;-81
2023/09/22 09:05:36;;;;;;;;;;;;;;;5.80;100.00;98483.31;5012299;28;20343;-81
2023/09/22 09:08:12;;;;;;;;;;;;;;;5.73;100.00;98474.84;5012442;28;19917;-84
2023/09/22 09:10:38;;;;;;;;;;;;;;;5.73;100.00;98479.25;5011724;28;19917;-81
2023/09/22 09:13:06;;;;;;;;;;;;;;;5.76;100.00;98471.22;5011622;28;20012;-83
2023/09/22 09:15:45;;;;;;;;;;;;;;;5.80;100.00;98473.63;5011228;28;20413;-81
2023/09/22 09:18:16;;;;;;;;;;;;;;;5.84;100.00;98477.00;5012915;28;19953;-81
2023/09/22 09:20:42;;;;;;;;;;;;;;;5.81;100.00;98472.72;5012066;28;19918;-82
2023/09/22 09:23:18;;;;;;;;;;;;;;;5.78;100.00;98470.22;5012388;28;19921;-81
2023/09/22 09:25:46;;;;;;;;;;;;;;;5.83;100.00;98475.28;5012444;28;19928;-83
2023/09/22 09:28:12;;;;;;;;;;;;;;;5.74;100.00;98475.69;5011762;28;19922;-83
2023/09/22 09:30:46;;;;;;;;;;;;;;;5.78;100.00;98469.38;5010426;28;19967;-85
2023/09/22 09:33:12;;;;;;;;;;;;;;;5.78;100.00;98469.38;5011777;28;20007;-81
2023/09/22 09:35:38;;;;;;;;;;;;;;;5.82;100.00;98473.56;5012077;28;20008;-81
2023/09/22 09:38:04;;;;;;;;;;;;;;;5.88;100.00;98469.81;5011793;28;19929;-81
2023/09/22 09:40:29;;;;;;;;;;;;;;;5.92;100.00;98459.09;5011445;28;19921;-86
2023/09/22 09:42:54;;;;;;;;;;;;;;;5.92;100.00;98459.09;5010722;28;19925;-84
2023/09/22 09:45:23;;;;;;;;;;;;;;;5.89;100.00;98463.63;5009780;28;19921;-84
2023/09/22 09:47:52;;;;;;;;;;;;;;;5.79;100.00;98471.94;5011497;28;20346;-82
2023/09/22 09:50:20;;;;;;;;;;;;;;;5.82;100.00;98468.31;5012062;28;19921;-85
2023/09/22 09:52:45;;;;;;;;;;;;;;;5.84;100.00;98471.75;5014615;28;19933;-82
2023/09/22 09:55:11;;;;;;;;;;;;;;;5.89;100.00;98469.75;4997530;28;19921;-80
2023/09/22 09:57:38;;;;;;;;;;;;;;;5.90;100.00;98468.81;5015903;28;19922;-82
2023/09/22 10:00:13;;;;;;;;;;;;;;;5.87;100.00;98468.97;5015888;28;19969;-81
2023/09/22 10:02:43;;;;;;;;;;;;;;;5.91;100.00;98467.91;5014584;28;19921;-81
2023/09/22 10:05:10;;;;;;;;;;;;;;;5.84;100.00;98469.13;5015909;28;19917;-81
2023/09/22 10:07:39;;;;;;;;;;;;;;;5.83;100.00;98459.50;5015858;28;20380;-81
2023/09/22 10:10:06;;;;;;;;;;;;;;;5.85;100.00;98462.91;5015132;28;19980;-82
2023/09/22 10:12:31;;;;;;;;;;;;;;;5.77;100.00;98462.41;5015765;28;19918;-81
2023/09/22 10:15:01;;;;;;;;;;;;;;;5.77;100.00;98463.25;5014295;28;19963;-87
2023/09/22 10:17:27;;;;;;;;;;;;;;;5.81;100.00;98456.09;4989084;28;19918;-82
2023/09/22 10:19:52;;;;;;;;;;;;;;;5.81;100.00;98456.94;5014808;28;20419;-83
2023/09/22 10:22:17;;;;;;;;;;;;;;;5.82;100.00;98455.16;5015395;28;20413;-81
2023/09/22 10:24:43;;;;;;;;;;;;;;;5.84;100.00;98458.59;5014752;28;20341;-80
2023/09/22 10:27:13;;;;;;;;;;;;;;;5.84;100.00;98445.47;5015584;28;19913;-81
2023/09/22 10:29:42;;;;;;;;;;;;;;;5.91;100.00;98441.63;5015410;28;20257;-81
2023/09/22 10:32:21;;;;;;;;;;;;;;;5.87;100.00;98440.06;5004539;28;19921;-81
2023/09/22 10:34:55;;;;;;;;;;;;;;;5.86;100.00;98443.59;5014866;28;20293;-81
2023/09/22 10:37:22;;;;;;;;;;;;;;;5.83;100.00;98447.22;5015112;28;20284;-86
2023/09/22 10:39:55;;;;;;;;;;;;;;;5.83;100.00;98444.59;5015232;28;19917;-86
2023/09/22 10:42:21;;;;;;;;;;;;;;;5.80;100.00;98451.75;5015052;28;20258;-88
2023/09/22 10:44:56;;;;;;;;;;;;;;;5.83;100.00;98439.31;5015288;28;19961;-84
2023/09/22 10:47:21;;;;;;;;;;;;;;;5.87;100.00;98444.44;5013454;28;19917;-85
2023/09/22 10:49:47;;;;;;;;;;;;;;;5.82;100.00;98435.00;5014946;28;20383;-85
2023/09/22 10:52:14;;;;;;;;;;;;;;;5.79;100.00;98431.66;5015197;28;19971;-87
2023/09/22 10:54:42;;;;;;;;;;;;;;;5.81;100.00;98425.41;5015098;28;20217;-85
2023/09/22 10:57:09;;;;;;;;;;;;;;;5.81;100.00;98425.41;5014318;28;19928;-86
2023/09/22 10:59:35;;;;;;;;;;;;;;;5.84;100.00;98434.94;5014953;28;19996;-86
2023/09/22 11:02:01;;;;;;;;;;;;;;;5.92;100.00;98427.56;5013481;28;19921;-81
2023/09/22 11:04:42;;;;;;;;;;;;;;;5.86;100.00;98427.84;5014657;28;20479;-84
2023/09/22 11:07:07;;;;;;;;;;;;;;;5.95;100.00;98427.41;5014766;28;19958;-86
2023/09/22 11:09:35;;;;;;;;;;;;;;;5.93;100.00;98420.50;5014432;28;19956;-84
2023/09/22 11:12:00;;;;;;;;;;;;;;;5.90;100.00;98428.53;5014689;28;19917;-85
2023/09/22 11:14:26;;;;;;;;;;;;;;;5.83;100.00;98426.19;5013573;28;19979;-85
2023/09/22 11:16:51;;;;;;;;;;;;;;;5.85;100.00;98431.38;5003941;28;19948;-82
2023/09/22 11:19:17;;;;;;;;;;;;;;;5.96;100.00;98425.63;5014388;28;19917;-85
2023/09/22 11:21:44;;;;;;;;;;;;;;;5.88;100.00;98423.34;5014411;28;19921;-81
2023/09/22 11:24:09;;;;;;;;;;;;;;;5.93;100.00;98410.84;5014352;28;19928;-85
2023/09/22 11:26:41;;;;;;;;;;;;;;;5.84;100.00;98424.44;5013224;28;19917;-84
2023/09/22 11:29:06;;;;;;;;;;;;;;;5.87;100.00;98420.78;5014223;28;20391;-82
2023/09/22 11:31:32;;;;;;;;;;;;;;;5.91;100.00;98425.84;5012852;28;19921;-87
2023/09/22 11:34:03;;;;;;;;;;;;;;;5.99;100.00;98410.59;5014305;28;19917;-82
2023/09/22 11:36:44;;;;;;;;;;;;;;;5.88;100.00;98415.47;5014290;28;19939;-85
2023/09/22 11:39:22;;;;;;;;;;;;;;;6.23;100.00;98425.31;5013404;28;19917;-85
2023/09/22 11:41:48;;;;;;;;;;;;;;;6.61;100.00;98415.59;5014074;28;19917;-85
2023/09/22 11:44:14;;;;;;;;;;;;;;;6.92;100.00;98427.25;5013861;28;19976;-84
2023/09/22 11:46:44;;;;;;;;;;;;;;;6.70;100.00;98423.06;5012780;28;20333;-85
2023/09/22 11:49:12;;;;;;;;;;;;;;;6.32;100.00;98420.47;5013177;28;20366;-91
2023/09/22 11:51:43;;;;;;;;;;;;;;;6.38;100.00;98415.84;5012673;28;20004;-84
2023/09/22 11:54:13;;;;;;;;;;;;;;;6.72;100.00;98423.81;5012587;28;19924;-90
2023/09/22 11:56:39;;;;;;;;;;;;;;;6.93;100.00;98420.22;5013901;28;20365;-85
2023/09/22 11:59:14;;;;;;;;;;;;;;;7.00;100.00;98417.19;5013728;28;19918;-85
2023/09/22 12:01:40;;;;;;;;;;;;;;;6.60;100.00;98407.78;5011716;28;20004;-84
2023/09/22 12:04:06;;;;;;;;;;;;;;;6.40;100.00;98409.59;5013625;28;20012;-81
2023/09/22 12:06:31;;;;;;;;;;;;;;;6.32;100.00;98399.44;5013571;28;19917;-85
2023/09/22 12:08:57;;;;;;;;;;;;;;;6.29;100.00;98399.56;5013448;28;20284;-86
2023/09/22 12:11:23;;;;;;;;;;;;;;;6.24;100.00;98400.69;5013670;28;19975;-92
2023/09/22 12:13:48;;;;;;;;;;;;;;;6.20;100.00;98389.47;5013505;28;19918;-84
2023/09/22 12:16:13;;;;;;;;;;;;;;;6.09;100.00;98389.13;5011678;28;20020;-84
2023/09/22 12:18:39;;;;;;;;;;;;;;;6.19;100.00;98385.16;5013443;28;19917;-87
2023/09/22 12:21:04;;;;;;;;;;;;;;;6.08;100.00;98385.66;5013391;28;19933;-82
2023/09/22 12:23:29;;;;;;;;;;;;;;;6.11;100.00;98377.63;5013203;28;19925;-82
2023/09/22 12:25:54;;;;;;;;;;;;;;;6.08;100.00;98379.53;5013230;28;19921;-83
2023/09/22 12:28:20;;;;;;;;;;;;;;;5.99;100.00;98365.91;5013166;28;19924;-85
2023/09/22 12:30:45;;;;;;;;;;;;;;;6.00;100.00;98366.75;5002429;28;19925;-81
2023/09/22 12:33:10;;;;;;;;;;;;;;;6.05;100.00;98366.53;5013068;28;19924;-82
2023/09/22 12:35:38;;;;;;;;;;;;;;;6.01;100.00;98360.56;5013477;28;20023;-82
2023/09/22 12:38:03;;;;;;;;;;;;;;;6.18;100.00;98362.41;5013112;28;19917;-82
2023/09/22 12:40:29;;;;;;;;;;;;;;;6.54;100.00;98366.81;5012866;28;19928;-81
2023/09/22 12:42:54;;;;;;;;;;;;;;;6.69;100.00;98355.53;5013072;28;19981;-85
2023/09/22 12:45:20;;;;;;;;;;;;;;;6.90;100.00;98358.03;5010743;28;19922;-83
2023/09/22 12:47:45;;;;;;;;;;;;;;;6.53;100.00;98365.13;5012330;28;20459;-82
2023/09/22 12:50:11;;;;;;;;;;;;;;;6.24;100.00;98354.22;5013114;28;19917;-86
2023/09/22 12:52:37;;;;;;;;;;;;;;;6.17;100.00;98352.81;5013084;28;20384;-86
2023/09/22 12:55:04;;;;;;;;;;;;;;;6.17;100.00;98355.44;5012828;28;20312;-80
2023/09/22 12:57:29;;;;;;;;;;;;;;;6.15;100.00;98349.41;5012631;28;19975;-81
2023/09/22 12:59:56;;;;;;;;;;;;;;;6.23;100.00;98346.41;5012810;28;20339;-82
2023/09/22 13:02:21;;;;;;;;;;;;;;;6.12;100.00;98339.03;5011320;28;19924;-82
2023/09/22 13:04:46;;;;;;;;;;;;;;;6.07;100.00;98341.03;5012627;28;19922;-80
2023/09/22 13:07:12;;;;;;;;;;;;;;;6.14;100.00;98337.16;5012546;28;19970;-81
2023/09/22 13:09:37;;;;;;;;;;;;;;;6.21;100.00;98338.59;5002748;28;19921;-85
2023/09/22 13:12:03;;;;;;;;;;;;;;;6.15;100.00;98338.88;5012670;28;20288;-80
2023/09/22 13:14:28;;;;;;;;;;;;;;;6.15;100.00;98331.00;5012409;28;20012;-80
2023/09/22 13:16:53;;;;;;;;;;;;;;;6.07;100.00;98330.50;5011197;28;19917;-81
2023/09/22 13:19:18;;;;;;;;;;;;;;;6.02;100.00;98337.78;5012367;28;20405;-81
2023/09/22 13:21:44;;;;;;;;;;;;;;;5.99;100.00;98342.22;5012370;28;20051;-81
2023/09/22 13:24:09;;;;;;;;;;;;;;;5.97;100.00;98338.00;5012406;28;20044;-85
2023/09/22 13:26:34;;;;;;;;;;;;;;;5.96;100.00;98336.25;5011364;28;20022;-80
2023/09/22 13:28:59;;;;;;;;;;;;;;;5.99;100.00;98334.34;5012537;28;19918;-82
2023/09/22 13:31:25;;;;;;;;;;;;;;;5.93;100.00;98333.75;5013117;28;20013;-82
2023/09/22 13:33:51;;;;;;;;;;;;;;;5.97;100.00;98323.06;5012361;28;20808;-81
2023/09/22 13:36:16;;;;;;;;;;;;;;;5.89;100.00;98319.03;5011346;28;19925;-80
2023/09/22 13:38:42;;;;;;;;;;;;;;;5.91;100.00;98315.41;5012137;28;20280;-86
2023/09/22 13:41:11;;;;;;;;;;;;;;;5.97;100.00;98315.16;5012286;28;20355;-85
2023/09/22 13:43:36;;;;;;;;;;;;;;;6.35;100.00;98309.84;5012126;28;19987;-86
2023/09/22 13:46:01;;;;;;;;;;;;;;;6.67;100.00;98314.41;5010546;28;19921;-85
2023/09/22 13:48:27;;;;;;;;;;;;;;;7.00;100.00;98317.09;5011921;28;20380;-86
2023/09/22 13:50:52;;;;;;;;;;;;;;;6.73;100.00;98317.59;5012117;28;19957;-85
2023/09/22 13:53:18;;;;;;;;;;;;;;;6.41;100.00;98323.63;5012105;28;19951;-85
2023/09/22 13:55:43;;;;;;;;;;;;;;;6.30;100.00;98322.38;5011896;28;19943;-85
2023/09/22 13:58:09;;;;;;;;;;;;;;;6.45;100.00;98327.81;5012049;28;19918;-86
2023/09/22 14:00:34;;;;;;;;;;;;;;;6.79;100.00;98326.13;5010932;28;19968;-85
2023/09/22 14:03:00;;;;;;;;;;;;;;;7.13;100.00;98322.59;5012146;28;20336;-85
2023/09/22 14:05:27;;;;;;;;;;;;;;;6.95;100.00;98329.66;5011834;28;19917;-85
2023/09/22 14:07:52;;;;;;;;;;;;;;;6.57;100.00;98337.72;5012115;28;20328;-85
2023/09/22 14:10:19;;;;;;;;;;;;;;;6.77;100.00;98338.50;4986950;28;19917;-90
2023/09/22 14:12:45;;;;;;;;;;;;;;;7.03;100.00;98380.16;5011843;28;20044;-86
2023/09/22 14:15:10;;;;;;;;;;;;;;;7.59;100.00;98436.13;5011955;28;19937;-82
2023/09/22 14:17:35;;;;;;;;;;;;;;;7.10;100.00;98430.78;5010477;28;19959;-85
2023/09/22 14:20:00;;;;;;;;;;;;;;;6.69;100.00;98428.41;5002540;28;19924;-83
2023/09/22 14:22:26;;;;;;;;;;;;;;;6.42;100.00;98431.41;5012005;28;20369;-88
2023/09/22 14:24:52;;;;;;;;;;;;;;;6.33;100.00;98421.31;5011947;28;20000;-91
2023/09/22 14:27:17;;;;;;;;;;;;;;;6.27;100.00;98417.22;5011794;28;20365;-85
2023/09/22 14:29:43;;;;;;;;;;;;;;;6.22;100.00;98402.56;4985918;28;19972;-89
2023/09/22 14:32:08;;;;;;;;;;;;;;;6.13;100.00;98419.63;5010430;28;19917;-81
2023/09/22 14:34:33;;;;;;;;;;;;;;;6.07;100.00;98420.75;5012173;28;19975;-87
2023/09/22 14:36:59;;;;;;;;;;;;;;;6.04;100.00;98430.56;5011778;28;20258;-84
2023/09/22 14:39:24;;;;;;;;;;;;;;;5.97;100.00;98430.84;5014666;28;20004;-88
2023/09/22 14:41:49;;;;;;;;;;;;;;;5.96;100.00;98444.03;5014985;28;19918;-85
2023/09/22 14:44:15;;;;;;;;;;;;;;;5.94;100.00;98459.88;5015120;28;20292;-83
2023/09/22 14:46:40;;;;;;;;;;;;;;;5.96;100.00;98454.56;5013645;28;20379;-84
2023/09/22 14:49:05;;;;;;;;;;;;;;;5.92;100.00;98477.50;5014865;28;20360;-80
2023/09/22 14:51:31;;;;;;;;;;;;;;;5.94;100.00;98485.34;5014953;28;19921;-85
2023/09/22 14:54:00;;;;;;;;;;;;;;;5.91;100.00;98491.56;5014865;28;20466;-85
2023/09/22 14:56:25;;;;;;;;;;;;;;;6.00;100.00;98493.81;5014491;28;19976;-84
2023/09/22 14:58:51;;;;;;;;;;;;;;;5.98;100.00;98487.78;5014607;28;19922;-85
2023/09/22 15:01:16;;;;;;;;;;;;;;;5.93;100.00;98492.34;5013696;28;19957;-84
2023/09/22 15:03:41;;;;;;;;;;;;;;;6.23;100.00;98488.44;4996973;28;19922;-86
2023/09/22 15:06:06;;;;;;;;;;;;;;;6.57;100.00;98487.72;5005446;28;20357;-85
2023/09/22 15:08:32;;;;;;;;;;;;;;;6.76;100.00;98481.59;5014394;28;19917;-81
2023/09/22 15:10:57;;;;;;;;;;;;;;;6.81;100.00;98469.06;5012971;28;19917;-84
2023/09/22 15:13:23;;;;;;;;;;;;;;;6.49;100.00;98474.06;5014558;28;19918;-81
2023/09/22 15:15:49;;;;;;;;;;;;;;;6.28;100.00;98474.16;5011715;28;19930;-85
2023/09/22 15:18:14;;;;;;;;;;;;;;;6.18;100.00;98475.50;5014612;28;19972;-85
2023/09/22 15:20:39;;;;;;;;;;;;;;;6.20;100.00;98484.16;4996720;28;19927;-81
2023/09/22 15:23:05;;;;;;;;;;;;;;;6.13;100.00;98467.81;5012471;28;20262;-81
2023/09/22 15:25:30;;;;;;;;;;;;;;;6.11;100.00;98466.16;5014156;28;19918;-85
2023/09/22 15:27:55;;;;;;;;;;;;;;;6.05;100.00;98485.72;5014351;28;19925;-84
2023/09/22 15:30:21;;;;;;;;;;;;;;;6.00;100.00;98472.78;5013584;28;20392;-81
2023/09/22 15:32:47;;;;;;;;;;;;;;;6.01;100.00;98489.41;5014636;28;19921;-82
2023/09/22 15:35:12;;;;;;;;;;;;;;;6.00;100.00;98493.81;5014391;28;19918;-85
2023/09/22 15:37:38;;;;;;;;;;;;;;;5.99;100.00;98497.38;5014115;28;20383;-87
2023/09/22 15:40:07;;;;;;;;;;;;;;;5.88;100.00;98496.97;5013897;28;19918;-87
2023/09/22 15:42:32;;;;;;;;;;;;;;;5.95;100.00;98503.66;5013974;28;19940;-86
2023/09/22 15:44:57;;;;;;;;;;;;;;;5.91;100.00;98504.72;5014028;28;20280;-85
2023/09/22 15:47:23;;;;;;;;;;;;;;;5.87;100.00;98505.78;5012666;28;19963;-86
2023/09/22 15:49:48;;;;;;;;;;;;;;;5.93;100.00;98502.84;5012940;28;19922;-86
2023/09/22 15:52:13;;;;;;;;;;;;;;;5.87;100.00;98505.78;5013935;28;20304;-84
2023/09/22 15:54:38;;;;;;;;;;;;;;;5.94;100.00;98503.72;5013737;28;19967;-86
2023/09/22 15:57:04;;;;;;;;;;;;;;;5.87;100.00;98515.44;5013704;28;19924;-86
2023/09/22 15:59:30;;;;;;;;;;;;;;;5.92;100.00;98513.44;5013700;28;20360;-84
2023/09/22 16:01:56;;;;;;;;;;;;;;;5.82;100.00;98511.25;5012432;28;20491;-86
2023/09/22 16:04:21;;;;;;;;;;;;;;;5.88;100.00;98512.72;5013702;28;19929;-81
2023/09/22 16:06:46;;;;;;;;;;;;;;;5.87;100.00;98516.31;5013819;28;19918;-89
2023/09/22 16:09:12;;;;;;;;;;;;;;;5.91;100.00;98517.00;5013481;28;19934;-85
2023/09/22 16:11:37;;;;;;;;;;;;;;;5.84;100.00;98519.06;5013450;28;20266;-85
2023/09/22 16:14:03;;;;;;;;;;;;;;;5.86;100.00;98522.47;5013484;28;19925;-84
2023/09/22 16:16:29;;;;;;;;;;;;;;;5.86;100.00;98524.25;5011299;28;19963;-85
2023/09/22 16:18:55;;;;;;;;;;;;;;;5.85;100.00;98530.44;5013509;28;19996;-85
2023/09/22 16:21:20;;;;;;;;;;;;;;;5.88;100.00;98530.28;5013398;28;20140;-85
2023/09/22 16:23:45;;;;;;;;;;;;;;;5.87;100.00;98523.31;5012945;28;19963;-85
2023/09/22 16:26:11;;;;;;;;;;;;;;;5.87;100.00;98529.44;5013451;28;20008;-85
2023/09/22 16:28:37;;;;;;;;;;;;;;;5.89;100.00;98531.97;5013234;28;19921;-81
2023/09/22 16:31:03;;;;;;;;;;;;;;;5.89;100.00;98531.97;5011890;28;20404;-82
2023/09/22 16:33:28;;;;;;;;;;;;;;;5.84;100.00;98540.09;5013280;28;19918;-81
2023/09/22 16:35:56;;;;;;;;;;;;;;;5.85;100.00;98547.03;5013316;28;19922;-81
2023/09/22 16:38:24;;;;;;;;;;;;;;;5.79;100.00;98552.56;4995014;28;19922;-84
2023/09/22 16:40:50;;;;;;;;;;;;;;;5.82;100.00;98549.81;5013251;28;19917;-85
2023/09/22 16:43:16;;;;;;;;;;;;;;;5.82;100.00;98553.31;5011457;28;19926;-85
2023/09/22 16:45:41;;;;;;;;;;;;;;;5.82;100.00;98560.31;5011526;28;20220;-84
2023/09/22 16:48:06;;;;;;;;;;;;;;;5.78;100.00;98578.00;5012647;28;19968;-87
2023/09/22 16:50:31;;;;;;;;;;;;;;;5.75;100.00;98572.03;5013282;28;19980;-90
2023/09/22 16:52:57;;;;;;;;;;;;;;;5.74;100.00;98576.41;4995054;28;19917;-86
2023/09/22 16:55:22;;;;;;;;;;;;;;;5.74;100.00;98578.19;5012993;28;19933;-86
2023/09/22 16:57:47;;;;;;;;;;;;;;;5.75;100.00;98574.66;5012662;28;19922;-80
2023/09/22 17:00:15;;;;;;;;;;;;;;;5.69;100.00;98577.53;4995061;28;19926;-87
2023/09/22 17:02:51;;;;;;;;;;;;;;;5.69;100.00;98577.53;5011279;28;19917;-84
2023/09/22 17:05:16;;;;;;;;;;;;;;;5.68;100.00;98581.06;5012550;28;19979;-88
2023/09/22 17:07:42;;;;;;;;;;;;;;;5.68;100.00;98581.06;5012661;28;20435;-83
2023/09/22 17:10:08;;;;;;;;;;;;;;;5.63;100.00;98579.50;5012525;28;19922;-84
2023/09/22 17:12:33;;;;;;;;;;;;;;;5.59;100.00;98583.19;5012737;28;19921;-85
2023/09/22 17:14:59;;;;;;;;;;;;;;;5.59;100.00;98592.84;5012517;28;20284;-85
2023/09/22 17:17:24;;;;;;;;;;;;;;;5.63;100.00;98595.28;5011253;28;20273;-84
2023/09/22 17:19:49;;;;;;;;;;;;;;;5.61;100.00;98598.88;5012528;28;19928;-83
2023/09/22 17:22:15;;;;;;;;;;;;;;;5.63;100.00;98603.16;5012557;28;19929;-81
2023/09/22 17:24:40;;;;;;;;;;;;;;;5.58;100.00;98602.47;5013845;28;20388;-88
2023/09/22 17:27:07;;;;;;;;;;;;;;;5.57;100.00;98611.31;5012459;28;19932;-81
2023/09/22 17:29:35;;;;;;;;;;;;;;;5.61;100.00;98604.13;5012673;28;19973;-90
2023/09/22 17:32:00;;;;;;;;;;;;;;;5.64;100.00;98612.75;5011802;28;19941;-82
2023/09/22 17:34:26;;;;;;;;;;;;;;;5.63;100.00;98621.56;5012319;28;19925;-82
2023/09/22 17:36:52;;;;;;;;;;;;;;;5.62;100.00;98622.47;5012124;28;19968;-81
2023/09/22 17:39:18;;;;;;;;;;;;;;;5.65;100.00;98626.75;5012215;28;19922;-81
2023/09/22 17:41:44;;;;;;;;;;;;;;;5.70;100.00;98637.09;4993686;28;19924;-84
2023/09/22 17:44:09;;;;;;;;;;;;;;;5.64;100.00;98639.03;5011483;28;20289;-81
2023/09/22 17:46:35;;;;;;;;;;;;;;;5.71;100.00;98637.03;5010908;28;19922;-81
2023/09/22 17:49:01;;;;;;;;;;;;;;;5.66;100.00;98643.38;5011812;28;20000;-81
2023/09/22 17:51:26;;;;;;;;;;;;;;;5.77;100.00;98643.78;5012142;28;20570;-89
2023/09/22 17:53:51;;;;;;;;;;;;;;;5.68;100.00;98657.28;5012361;28;19971;-83
2023/09/22 17:56:16;;;;;;;;;;;;;;;5.61;100.00;98656.69;5011971;28;20369;-87
2023/09/22 17:58:42;;;;;;;;;;;;;;;5.62;100.00;98648.75;5012162;28;20249;-85
2023/09/22 18:01:10;;;;;;;;;;;;;;;5.52;100.00;98652.69;5011058;28;20257;-82
2023/09/22 18:03:35;;;;;;;;;;;;;;;5.59;100.00;98661.16;5010805;28;20570;-88
2023/09/22 18:06:00;;;;;;;;;;;;;;;5.52;100.00;98665.81;4994224;28;20017;-90
2023/09/22 18:08:26;;;;;;;;;;;;;;;5.58;100.00;98665.53;5011463;28;19921;-87
2023/09/22 18:10:51;;;;;;;;;;;;;;;5.43;100.00;98666.19;5012090;28;19967;-83
2023/09/22 18:13:17;;;;;;;;;;;;;;;5.50;100.00;98672.88;5013513;28;19971;-82
2023/09/22 18:15:43;;;;;;;;;;;;;;;5.44;100.00;98681.00;5014507;28;19921;-83
2023/09/22 18:18:11;;;;;;;;;;;;;;;5.48;100.00;98694.91;5015700;28;20364;-81
2023/09/22 18:20:37;;;;;;;;;;;;;;;5.56;100.00;98691.03;5015501;28;20308;-83
2023/09/22 18:23:03;;;;;;;;;;;;;;;5.38;100.00;98699.66;5015427;28;19928;-81
2023/09/22 18:25:28;;;;;;;;;;;;;;;5.36;100.00;98701.47;5015523;28;19957;-81
2023/09/22 18:27:53;;;;;;;;;;;;;;;5.43;100.00;98714.31;5014029;28;19949;-83
2023/09/22 18:30:19;;;;;;;;;;;;;;;5.43;100.00;98708.22;5015197;28;19924;-84
2023/09/22 18:32:44;;;;;;;;;;;;;;;5.37;100.00;98721.59;5014386;28;20012;-87
2023/09/22 18:35:09;;;;;;;;;;;;;;;5.34;100.00;98729.59;5015357;28;20372;-81
2023/09/22 18:37:34;;;;;;;;;;;;;;;5.36;100.00;98731.25;5015520;28;19953;-80
2023/09/22 18:40:00;;;;;;;;;;;;;;;5.34;100.00;98737.47;5015346;28;19917;-84
2023/09/22 18:42:25;;;;;;;;;;;;;;;5.25;100.00;98739.53;5015066;28;20372;-83
2023/09/22 18:44:51;;;;;;;;;;;;;;;5.28;100.00;98739.41;5015268;28;20016;-82
2023/09/22 18:47:17;;;;;;;;;;;;;;;5.35;100.00;98737.41;5013586;28;19917;-85